sensor_id;sensor_type;location;lat;lon;timestamp;pressure;altitude;pressure_sealevel;temperature;humidity
68793;BME280;55778;54.346;10.210;2023-02-08T00:00:14;103740.91;;;-2.81;100.00
68793;BME280;55778;54.346;10.210;2023-02-08T00:02:39;103746.25;;;-2.82;100.00
68793;BME280;55778;54.346;10.210;2023-02-08T00:05:05;103748.91;;;-2.81;100.00
68793;BME280;55778;54.346;10.210;2023-02-08T00:07:31;103750.59;;;-2.93;100.00
68793;BME280;55778;54.346;10.210;2023-02-08T00:09:56;103746.13;;;-2.97;100.00
68793;BME280;55778;54.346;10.210;2023-02-08T00:12:22;103744.28;;;-3.06;100.00
68793;BME280;55778;54.346;10.210;2023-02-08T00:14:47;103736.25;;;-3.10;100.00
68793;BME280;55778;54.346;10.210;2023-02-08T00:17:13;103737.09;;;-3.11;100.00
68793;BME280;55778;54.346;10.210;2023-02-08T00:19:38;103738.00;;;-3.11;100.00
68793;BME280;55778;54.346;10.210;2023-02-08T00:22:03;103746.00;;;-3.11;100.00
68793;BME280;55778;54.346;10.210;2023-02-08T00:24:29;103738.91;;;-3.10;100.00
68793;BME280;55778;54.346;10.210;2023-02-08T00:26:54;103732.66;;;-3.11;100.00
68793;BME280;55778;54.346;10.210;2023-02-08T00:29:20;103726.44;;;-3.10;100.00
68793;BME280;55778;54.346;10.210;2023-02-08T00:31:45;103732.72;;;-3.03;100.00
68793;BME280;55778;54.346;10.210;2023-02-08T00:34:11;103731.84;;;-3.02;100.00
68793;BME280;55778;54.346;10.210;2023-02-08T00:36:36;103733.63;;;-3.03;100.00
68793;BME280;55778;54.346;10.210;2023-02-08T00:39:02;103727.47;;;-2.94;100.00
68793;BME280;55778;54.346;10.210;2023-02-08T00:41:27;103738.06;;;-3.05;100.00
68793;BME280;55778;54.346;10.210;2023-02-08T00:43:53;103734.41;;;-3.13;100.00
68793;BME280;55778;54.346;10.210;2023-02-08T00:46:18;103736.22;;;-3.12;100.00
68793;BME280;55778;54.346;10.210;2023-02-08T00:48:44;103743.34;;;-3.09;100.00
68793;BME280;55778;54.346;10.210;2023-02-08T00:51:11;103744.25;;;-3.10;100.00
68793;BME280;55778;54.346;10.210;2023-02-08T00:53:39;103738.00;;;-3.11;100.00
68793;BME280;55778;54.346;10.210;2023-02-08T00:56:06;103731.03;;;-2.97;100.00
68793;BME280;55778;54.346;10.210;2023-02-08T00:58:32;103739.03;;;-2.97;100.00
68793;BME280;55778;54.346;10.210;2023-02-08T01:00:59;103734.56;;;-2.96;100.00
68793;BME280;55778;54.346;10.210;2023-02-08T01:03:25;103723.94;;;-2.90;100.00
68793;BME280;55778;54.346;10.210;2023-02-08T01:05:51;103725.72;;;-2.89;100.00
68793;BME280;55778;54.346;10.210;2023-02-08T01:08:16;103719.47;;;-2.96;100.00
68793;BME280;55778;54.346;10.210;2023-02-08T01:10:44;103724.72;;;-3.05;100.00
68793;BME280;55778;54.346;10.210;2023-02-08T01:13:10;103718.53;;;-3.01;100.00
68793;BME280;55778;54.346;10.210;2023-02-08T01:15:36;103723.81;;;-3.04;100.00
68793;BME280;55778;54.346;10.210;2023-02-08T01:18:01;103728.38;;;-2.94;100.00
68793;BME280;55778;54.346;10.210;2023-02-08T01:20:27;103729.28;;;-2.90;100.00
68793;BME280;55778;54.346;10.210;2023-02-08T01:22:54;103732.00;;;-2.83;100.00
68793;BME280;55778;54.346;10.210;2023-02-08T01:25:20;103726.69;;;-2.77;100.00
68793;BME280;55778;54.346;10.210;2023-02-08T01:27:45;103721.34;;;-2.78;100.00
68793;BME280;55778;54.346;10.210;2023-02-08T01:30:11;103724.97;;;-2.72;100.00
68793;BME280;55778;54.346;10.210;2023-02-08T01:32:37;103725.91;;;-2.64;100.00
68793;BME280;55778;54.346;10.210;2023-02-08T01:35:02;103714.38;;;-2.61;100.00
68793;BME280;55778;54.346;10.210;2023-02-08T01:37:28;103713.44;;;-2.63;100.00
68793;BME280;55778;54.346;10.210;2023-02-08T01:39:53;103709.91;;;-2.61;100.00
68793;BME280;55778;54.346;10.210;2023-02-08T01:42:19;103709.88;;;-2.62;100.00
68793;BME280;55778;54.346;10.210;2023-02-08T01:47:46;103718.81;;;-2.62;100.00
68793;BME280;55778;54.346;10.210;2023-02-08T01:50:14;103717.00;;;-2.66;100.00
68793;BME280;55778;54.346;10.210;2023-02-08T01:52:44;103712.56;;;-2.62;100.00
68793;BME280;55778;54.346;10.210;2023-02-08T01:55:14;103720.53;;;-2.65;100.00
68793;BME280;55778;54.346;10.210;2023-02-08T01:57:41;103709.88;;;-2.62;100.00
68793;BME280;55778;54.346;10.210;2023-02-08T02:00:12;103701.03;;;-2.61;100.00
68793;BME280;55778;54.346;10.210;2023-02-08T02:02:39;103703.63;;;-2.73;100.00
68793;BME280;55778;54.346;10.210;2023-02-08T02:05:06;103697.41;;;-2.68;100.00
68793;BME280;55778;54.346;10.210;2023-02-08T02:07:32;103701.00;;;-2.66;100.00
68793;BME280;55778;54.346;10.210;2023-02-08T02:12:32;103693.81;;;-2.74;100.00
68793;BME280;55778;54.346;10.210;2023-02-08T02:15:00;103687.59;;;-2.73;100.00
68793;BME280;55778;54.346;10.210;2023-02-08T02:17:26;103689.34;;;-2.77;100.00
68793;BME280;55778;54.346;10.210;2023-02-08T02:26:00;103682.19;;;-2.85;100.00
68793;BME280;55778;54.346;10.210;2023-02-08T02:39:32;103679.53;;;-2.85;100.00
68793;BME280;55778;54.346;10.210;2023-02-08T02:45:37;103675.03;;;-2.89;100.00
68793;BME280;55778;54.346;10.210;2023-02-08T02:51:09;103669.69;;;-2.89;100.00
68793;BME280;55778;54.346;10.210;2023-02-08T02:56:09;103673.28;;;-2.86;100.00
68793;BME280;55778;54.346;10.210;2023-02-08T02:58:37;103675.03;;;-2.88;100.00
68793;BME280;55778;54.346;10.210;2023-02-08T03:01:04;103675.94;;;-2.86;100.00
68793;BME280;55778;54.346;10.210;2023-02-08T03:03:32;103672.38;;;-2.86;100.00
68793;BME280;55778;54.346;10.210;2023-02-08T03:06:04;103670.63;;;-2.86;100.00
68793;BME280;55778;54.346;10.210;2023-02-08T03:08:54;103671.50;;;-2.87;100.00
68793;BME280;55778;54.346;10.210;2023-02-08T03:11:27;103663.50;;;-2.88;100.00
68793;BME280;55778;54.346;10.210;2023-02-08T03:14:34;103667.91;;;-2.90;100.00
68793;BME280;55778;54.346;10.210;2023-02-08T03:19:37;103666.16;;;-2.91;100.00
68793;BME280;55778;54.346;10.210;2023-02-08T03:25:20;103683.03;;;-2.88;100.00
68793;BME280;55778;54.346;10.210;2023-02-08T03:30:31;103681.28;;;-2.84;100.00
68793;BME280;55778;54.346;10.210;2023-02-08T03:33:06;103671.53;;;-2.82;100.00
68793;BME280;55778;54.346;10.210;2023-02-08T03:35:49;103681.31;;;-2.83;100.00
68793;BME280;55778;54.346;10.210;2023-02-08T03:38:25;103673.28;;;-2.84;100.00
68793;BME280;55778;54.346;10.210;2023-02-08T03:40:56;103676.88;;;-2.82;100.00
68793;BME280;55778;54.346;10.210;2023-02-08T03:43:28;103681.28;;;-2.84;100.00
68793;BME280;55778;54.346;10.210;2023-02-08T03:46:09;103687.56;;;-2.81;100.00
68793;BME280;55778;54.346;10.210;2023-02-08T03:48:38;103684.00;;;-2.78;100.00
68793;BME280;55778;54.346;10.210;2023-02-08T03:51:06;103692.03;;;-2.77;100.00
68793;BME280;55778;54.346;10.210;2023-02-08T03:53:34;103683.09;;;-2.80;100.00
68793;BME280;55778;54.346;10.210;2023-02-08T03:56:08;103692.00;;;-2.78;100.00
68793;BME280;55778;54.346;10.210;2023-02-08T03:58:41;103684.91;;;-2.78;99.79
68793;BME280;55778;54.346;10.210;2023-02-08T04:01:16;103682.22;;;-2.81;99.82
68793;BME280;55778;54.346;10.210;2023-02-08T04:03:43;103683.09;;;-2.80;99.87
68793;BME280;55778;54.346;10.210;2023-02-08T04:06:10;103695.53;;;-2.84;99.54
68793;BME280;55778;54.346;10.210;2023-02-08T04:08:36;103683.06;;;-2.85;99.54
68793;BME280;55778;54.346;10.210;2023-02-08T04:11:01;103688.47;;;-2.76;99.12
68793;BME280;55778;54.346;10.210;2023-02-08T04:13:26;103689.28;;;-2.87;99.01
68793;BME280;55778;54.346;10.210;2023-02-08T04:15:52;103694.66;;;-2.81;99.28
68793;BME280;55778;54.346;10.210;2023-02-08T04:18:17;103695.53;;;-2.84;98.96
68793;BME280;55778;54.346;10.210;2023-02-08T04:20:42;103693.69;;;-2.91;98.78
68793;BME280;55778;54.346;10.210;2023-02-08T04:23:08;103694.47;;;-3.08;99.74
68793;BME280;55778;54.346;10.210;2023-02-08T04:25:33;103698.00;;;-3.09;99.98
68793;BME280;55778;54.346;10.210;2023-02-08T04:27:59;103701.50;;;-3.19;100.00
68793;BME280;55778;54.346;10.210;2023-02-08T04:30:24;103702.25;;;-3.37;100.00
68793;BME280;55778;54.346;10.210;2023-02-08T04:32:49;103708.34;;;-3.48;100.00
68793;BME280;55778;54.346;10.210;2023-02-08T04:35:15;103709.16;;;-3.55;100.00
68793;BME280;55778;54.346;10.210;2023-02-08T04:37:40;103709.16;;;-3.57;100.00
68793;BME280;55778;54.346;10.210;2023-02-08T04:40:06;103706.47;;;-3.58;100.00
68793;BME280;55778;54.346;10.210;2023-02-08T04:42:34;103706.41;;;-3.64;100.00
68793;BME280;55778;54.346;10.210;2023-02-08T04:44:59;103708.16;;;-3.66;100.00
68793;BME280;55778;54.346;10.210;2023-02-08T04:47:25;103705.56;;;-3.57;100.00
68793;BME280;55778;54.346;10.210;2023-02-08T04:49:50;103705.00;;;-3.23;100.00
68793;BME280;55778;54.346;10.210;2023-02-08T04:52:15;103693.63;;;-3.03;100.00
68793;BME280;55778;54.346;10.210;2023-02-08T04:54:41;103691.91;;;-2.95;98.89
68793;BME280;55778;54.346;10.210;2023-02-08T04:57:08;103691.84;;;-3.02;98.63
68793;BME280;55778;54.346;10.210;2023-02-08T04:59:36;103687.44;;;-2.99;98.21
68793;BME280;55778;54.346;10.210;2023-02-08T05:02:01;103690.03;;;-3.06;98.72
68793;BME280;55778;54.346;10.210;2023-02-08T05:04:27;103691.84;;;-3.02;98.51
68793;BME280;55778;54.346;10.210;2023-02-08T05:06:52;103698.06;;;-3.05;98.99
68793;BME280;55778;54.346;10.210;2023-02-08T05:09:17;103698.97;;;-3.03;98.89
68793;BME280;55778;54.346;10.210;2023-02-08T05:11:43;103697.13;;;-3.07;98.52
68793;BME280;55778;54.346;10.210;2023-02-08T05:14:08;103700.69;;;-3.09;98.77
68793;BME280;55778;54.346;10.210;2023-02-08T05:16:34;103705.09;;;-3.11;99.03
68793;BME280;55778;54.346;10.210;2023-02-08T05:18:59;103700.63;;;-3.17;99.05
68793;BME280;55778;54.346;10.210;2023-02-08T05:21:25;103705.03;;;-3.19;99.53
68793;BME280;55778;54.346;10.210;2023-02-08T05:23:51;103707.75;;;-3.14;98.79
68793;BME280;55778;54.346;10.210;2023-02-08T05:26:17;103697.78;;;-3.35;98.96
68793;BME280;55778;54.346;10.210;2023-02-08T05:28:43;103695.19;;;-3.29;99.86
68793;BME280;55778;54.346;10.210;2023-02-08T05:33:41;103689.94;;;-3.18;99.72
68793;BME280;55778;54.346;10.210;2023-02-08T05:36:06;103687.25;;;-3.21;99.53
68793;BME280;55778;54.346;10.210;2023-02-08T05:38:32;103698.66;;;-3.37;100.00
68793;BME280;55778;54.346;10.210;2023-02-08T05:40:57;103698.53;;;-3.52;100.00
68793;BME280;55778;54.346;10.210;2023-02-08T05:43:23;103701.94;;;-3.68;100.00
68793;BME280;55778;54.346;10.210;2023-02-08T05:45:49;103700.03;;;-3.80;100.00
68793;BME280;55778;54.346;10.210;2023-02-08T05:48:15;103699.88;;;-3.95;100.00
68793;BME280;55778;54.346;10.210;2023-02-08T05:50:40;103710.44;;;-4.02;100.00
68793;BME280;55778;54.346;10.210;2023-02-08T05:53:07;103705.97;;;-4.02;100.00
68793;BME280;55778;54.346;10.210;2023-02-08T05:55:32;103704.09;;;-4.12;100.00
68793;BME280;55778;54.346;10.210;2023-02-08T05:57:58;103716.50;;;-4.16;100.00
68793;BME280;55778;54.346;10.210;2023-02-08T06:00:23;103720.94;;;-4.15;100.00
68793;BME280;55778;54.346;10.210;2023-02-08T06:02:48;103712.00;;;-4.18;100.00
68793;BME280;55778;54.346;10.210;2023-02-08T06:05:14;103703.22;;;-4.13;100.00
68793;BME280;55778;54.346;10.210;2023-02-08T06:07:39;103703.34;;;-3.99;100.00
68793;BME280;55778;54.346;10.210;2023-02-08T06:10:05;103694.47;;;-4.01;100.00
68793;BME280;55778;54.346;10.210;2023-02-08T06:12:31;103690.91;;;-4.03;100.00
68793;BME280;55778;54.346;10.210;2023-02-08T06:14:56;103696.16;;;-4.07;100.00
68793;BME280;55778;54.346;10.210;2023-02-08T06:17:22;103691.84;;;-3.98;100.00
68793;BME280;55778;54.346;10.210;2023-02-08T06:19:47;103694.56;;;-3.93;100.00
68793;BME280;55778;54.346;10.210;2023-02-08T06:22:13;103691.06;;;-3.88;100.00
68793;BME280;55778;54.346;10.210;2023-02-08T06:24:38;103698.06;;;-3.96;100.00
68793;BME280;55778;54.346;10.210;2023-02-08T06:27:03;103691.81;;;-4.02;100.00
68793;BME280;55778;54.346;10.210;2023-02-08T06:29:29;103689.06;;;-4.08;100.00
68793;BME280;55778;54.346;10.210;2023-02-08T06:31:54;103699.63;;;-4.16;100.00
68793;BME280;55778;54.346;10.210;2023-02-08T06:34:20;103698.66;;;-4.21;100.00
68793;BME280;55778;54.346;10.210;2023-02-08T06:36:45;103693.53;;;-4.06;100.00
68793;BME280;55778;54.346;10.210;2023-02-08T06:39:11;103685.50;;;-4.09;100.00
68793;BME280;55778;54.346;10.210;2023-02-08T06:41:36;103688.16;;;-4.11;100.00
68793;BME280;55778;54.346;10.210;2023-02-08T06:44:01;103690.78;;;-4.12;100.00
68793;BME280;55778;54.346;10.210;2023-02-08T06:46:27;103692.59;;;-4.11;100.00
68793;BME280;55778;54.346;10.210;2023-02-08T06:48:52;103695.22;;;-4.14;100.00
68793;BME280;55778;54.346;10.210;2023-02-08T06:51:19;103692.53;;;-4.16;100.00
68793;BME280;55778;54.346;10.210;2023-02-08T06:53:44;103693.34;;;-4.20;100.00
68793;BME280;55778;54.346;10.210;2023-02-08T06:56:10;103703.94;;;-4.24;100.00
68793;BME280;55778;54.346;10.210;2023-02-08T06:58:35;103697.78;;;-4.23;100.00
68793;BME280;55778;54.346;10.210;2023-02-08T07:01:03;103700.28;;;-4.35;100.00
68793;BME280;55778;54.346;10.210;2023-02-08T07:03:28;103709.09;;;-4.41;100.00
68793;BME280;55778;54.346;10.210;2023-02-08T07:05:54;103702.78;;;-4.46;100.00
68793;BME280;55778;54.346;10.210;2023-02-08T07:08:19;103706.44;;;-4.36;100.00
68793;BME280;55778;54.346;10.210;2023-02-08T07:10:45;103706.47;;;-4.35;100.00
68793;BME280;55778;54.346;10.210;2023-02-08T07:13:10;103699.59;;;-4.18;100.00
68793;BME280;55778;54.346;10.210;2023-02-08T07:15:36;103697.22;;;-3.95;100.00
68793;BME280;55778;54.346;10.210;2023-02-08T07:18:01;103700.16;;;-3.66;100.00
68793;BME280;55778;54.346;10.210;2023-02-08T07:20:26;103701.25;;;-3.48;100.00
68793;BME280;55778;54.346;10.210;2023-02-08T07:22:52;103704.28;;;-3.04;100.00
68793;BME280;55778;54.346;10.210;2023-02-08T07:25:17;103700.88;;;-2.85;99.24
68793;BME280;55778;54.346;10.210;2023-02-08T07:27:43;103699.09;;;-2.79;98.50
68793;BME280;55778;54.346;10.210;2023-02-08T07:30:09;103690.34;;;-2.61;97.96
68793;BME280;55778;54.346;10.210;2023-02-08T07:32:37;103686.78;;;-2.59;97.37
68793;BME280;55778;54.346;10.210;2023-02-08T07:35:02;103692.19;;;-2.48;96.95
68793;BME280;55778;54.346;10.210;2023-02-08T07:37:27;103688.66;;;-2.40;96.06
68793;BME280;55778;54.346;10.210;2023-02-08T07:39:53;103686.94;;;-2.33;95.37
68793;BME280;55778;54.346;10.210;2023-02-08T07:42:18;103679.72;;;-2.45;95.20
68793;BME280;55778;54.346;10.210;2023-02-08T07:44:44;103674.34;;;-2.55;95.83
68793;BME280;55778;54.346;10.210;2023-02-08T07:47:09;103675.19;;;-2.64;96.45
68793;BME280;55778;54.346;10.210;2023-02-08T07:49:35;103663.63;;;-2.66;96.59
68793;BME280;55778;54.346;10.210;2023-02-08T07:52:01;103666.25;;;-2.75;96.83
68793;BME280;55778;54.346;10.210;2023-02-08T07:54:27;103659.06;;;-2.82;97.35
68793;BME280;55778;54.346;10.210;2023-02-08T07:56:52;103663.56;;;-2.79;97.22
68793;BME280;55778;54.346;10.210;2023-02-08T07:59:18;103660.94;;;-2.69;96.94
68793;BME280;55778;54.346;10.210;2023-02-08T08:01:43;103657.41;;;-2.63;96.47
68793;BME280;55778;54.346;10.210;2023-02-08T08:04:08;103663.66;;;-2.60;95.79
68793;BME280;55778;54.346;10.210;2023-02-08T08:06:34;103655.69;;;-2.51;95.81
68793;BME280;55778;54.346;10.210;2023-02-08T08:08:59;103662.06;;;-2.19;94.67
68793;BME280;55778;54.346;10.210;2023-02-08T08:11:25;103655.91;;;-1.89;93.05
68793;BME280;55778;54.346;10.210;2023-02-08T08:13:50;103651.47;;;-1.70;91.77
68793;BME280;55778;54.346;10.210;2023-02-08T08:16:16;103648.78;;;-1.63;91.05
68793;BME280;55778;54.346;10.210;2023-02-08T08:18:42;103641.69;;;-1.47;90.22
68793;BME280;55778;54.346;10.210;2023-02-08T08:21:08;103648.81;;;-1.36;89.61
68793;BME280;55778;54.346;10.210;2023-02-08T08:23:33;103632.78;;;-1.36;89.02
68793;BME280;55778;54.346;10.210;2023-02-08T08:26:06;103631.84;;;-1.17;88.40
68793;BME280;55778;54.346;10.210;2023-02-08T08:28:32;103630.09;;;-1.16;87.71
68793;BME280;55778;54.346;10.210;2023-02-08T08:30:57;103618.44;;;-0.99;87.17
68793;BME280;55778;54.346;10.210;2023-02-08T08:33:22;103625.56;;;-0.96;86.69
68793;BME280;55778;54.346;10.210;2023-02-08T08:35:48;103628.22;;;-0.90;86.60
68793;BME280;55778;54.346;10.210;2023-02-08T08:38:13;103633.59;;;-0.89;86.34
68793;BME280;55778;54.346;10.210;2023-02-08T08:40:39;103636.25;;;-0.81;86.25
68793;BME280;55778;54.346;10.210;2023-02-08T08:43:04;103625.47;;;-0.63;85.66
68793;BME280;55778;54.346;10.210;2023-02-08T08:45:30;103625.47;;;-0.62;84.40
68793;BME280;55778;54.346;10.210;2023-02-08T08:47:55;103630.78;;;-0.45;84.14
68793;BME280;55778;54.346;10.210;2023-02-08T08:50:21;103629.81;;;-0.32;83.57
68793;BME280;55778;54.346;10.210;2023-02-08T08:52:46;103624.47;;;-0.38;82.09
68793;BME280;55778;54.346;10.210;2023-02-08T08:55:11;103628.91;;;-0.31;83.79
68793;BME280;55778;54.346;10.210;2023-02-08T08:57:37;103621.53;;;0.13;82.68
68793;BME280;55778;54.346;10.210;2023-02-08T09:00:03;103630.63;;;-0.11;82.31
68793;BME280;55778;54.346;10.210;2023-02-08T09:02:28;103619.72;;;0.12;82.44
68793;BME280;55778;54.346;10.210;2023-02-08T09:04:54;103625.13;;;0.06;81.29
68793;BME280;55778;54.346;10.210;2023-02-08T09:07:19;103633.94;;;0.28;81.03
68793;BME280;55778;54.346;10.210;2023-02-08T09:09:45;103636.44;;;0.52;79.85
68793;BME280;55778;54.346;10.210;2023-02-08T09:12:14;103636.06;;;0.91;77.88
68793;BME280;55778;54.346;10.210;2023-02-08T09:14:40;103630.72;;;0.86;77.96
68793;BME280;55778;54.346;10.210;2023-02-08T09:17:06;103639.72;;;0.85;77.30
68793;BME280;55778;54.346;10.210;2023-02-08T09:19:31;103639.66;;;0.91;76.66
68793;BME280;55778;54.346;10.210;2023-02-08T09:21:57;103638.47;;;1.19;76.44
68793;BME280;55778;54.346;10.210;2023-02-08T09:24:24;103635.75;;;1.22;75.85
68793;BME280;55778;54.346;10.210;2023-02-08T09:26:50;103633.81;;;1.35;74.85
68793;BME280;55778;54.346;10.210;2023-02-08T09:29:15;103644.50;;;1.41;74.35
68793;BME280;55778;54.346;10.210;2023-02-08T09:31:41;103648.63;;;1.69;73.86
68793;BME280;55778;54.346;10.210;2023-02-08T09:34:07;103649.59;;;1.62;72.64
68793;BME280;55778;54.346;10.210;2023-02-08T09:36:34;103637.81;;;1.73;72.89
68793;BME280;55778;54.346;10.210;2023-02-08T09:39:05;103631.44;;;1.80;72.01
68793;BME280;55778;54.346;10.210;2023-02-08T09:46:40;103630.25;;;2.02;72.19
68793;BME280;55778;54.346;10.210;2023-02-08T09:49:15;103632.00;;;2.03;71.22
68793;BME280;55778;54.346;10.210;2023-02-08T09:51:48;103624.28;;;2.42;71.33
68793;BME280;55778;54.346;10.210;2023-02-08T09:54:35;103621.44;;;2.51;69.80
68793;BME280;55778;54.346;10.210;2023-02-08T09:57:04;103630.25;;;2.59;69.24
68793;BME280;55778;54.346;10.210;2023-02-08T09:59:32;103630.69;;;2.86;68.16
68793;BME280;55778;54.346;10.210;2023-02-08T10:02:03;103630.03;;;3.19;67.84
68793;BME280;55778;54.346;10.210;2023-02-08T10:07:00;103621.19;;;3.14;67.06
68793;BME280;55778;54.346;10.210;2023-02-08T10:09:26;103613.97;;;3.15;66.02
68793;BME280;55778;54.346;10.210;2023-02-08T10:12:04;103609.09;;;3.35;66.08
68793;BME280;55778;54.346;10.210;2023-02-08T10:28:32;103613.41;;;4.24;60.19
68793;BME280;55778;54.346;10.210;2023-02-08T10:36:20;103599.84;;;4.27;59.02
68793;BME280;55778;54.346;10.210;2023-02-08T10:38:48;103593.66;;;4.22;58.46
68793;BME280;55778;54.346;10.210;2023-02-08T10:41:19;103588.00;;;3.96;57.57
68793;BME280;55778;54.346;10.210;2023-02-08T10:44:21;103588.56;;;4.08;55.89
68793;BME280;55778;54.346;10.210;2023-02-08T10:47:02;103595.94;;;4.02;55.53
68793;BME280;55778;54.346;10.210;2023-02-08T10:50:06;103588.13;;;3.90;55.79
68793;BME280;55778;54.346;10.210;2023-02-08T10:52:35;103595.84;;;4.05;54.44
68793;BME280;55778;54.346;10.210;2023-02-08T10:55:01;103581.91;;;3.86;54.10
68793;BME280;55778;54.346;10.210;2023-02-08T10:57:30;103589.97;;;3.88;53.92
68793;BME280;55778;54.346;10.210;2023-02-08T11:00:01;103586.75;;;4.10;53.61
68793;BME280;55778;54.346;10.210;2023-02-08T11:02:40;103589.47;;;4.09;52.43
68793;BME280;55778;54.346;10.210;2023-02-08T11:05:13;103580.16;;;3.84;52.42
68793;BME280;55778;54.346;10.210;2023-02-08T11:07:39;103593.41;;;3.94;52.41
68793;BME280;55778;54.346;10.210;2023-02-08T11:15:24;103570.44;;;4.50;50.71
68793;BME280;55778;54.346;10.210;2023-02-08T11:17:57;103573.16;;;4.50;50.48
68793;BME280;55778;54.346;10.210;2023-02-08T11:20:30;103563.28;;;4.49;51.35
68793;BME280;55778;54.346;10.210;2023-02-08T11:22:57;103555.06;;;4.87;50.33
68793;BME280;55778;54.346;10.210;2023-02-08T11:25:31;103556.34;;;5.05;49.38
68793;BME280;55778;54.346;10.210;2023-02-08T11:27:57;103560.63;;;4.81;49.48
68793;BME280;55778;54.346;10.210;2023-02-08T11:30:25;103547.34;;;4.72;50.22
68793;BME280;55778;54.346;10.210;2023-02-08T11:33:26;103546.88;;;4.90;50.46
68793;BME280;55778;54.346;10.210;2023-02-08T11:35:56;103540.91;;;4.78;49.91
68793;BME280;55778;54.346;10.210;2023-02-08T11:38:23;103536.31;;;5.13;49.38
68793;BME280;55778;54.346;10.210;2023-02-08T11:40:54;103540.84;;;5.42;48.04
68793;BME280;55778;54.346;10.210;2023-02-08T11:43:32;103538.00;;;5.17;47.67
68793;BME280;55778;54.346;10.210;2023-02-08T11:46:00;103544.50;;;5.10;47.38
68793;BME280;55778;54.346;10.210;2023-02-08T11:48:43;103548.22;;;5.06;47.71
68793;BME280;55778;54.346;10.210;2023-02-08T11:51:13;103545.59;;;5.03;47.37
68793;BME280;55778;54.346;10.210;2023-02-08T11:53:47;103547.13;;;5.13;46.24
68793;BME280;55778;54.346;10.210;2023-02-08T11:56:21;103545.31;;;5.44;47.04
68793;BME280;55778;54.346;10.210;2023-02-08T11:59:04;103540.84;;;5.42;45.46
68793;BME280;55778;54.346;10.210;2023-02-08T12:01:41;103547.81;;;5.50;46.37
68793;BME280;55778;54.346;10.210;2023-02-08T12:04:09;103537.78;;;5.54;46.22
68793;BME280;55778;54.346;10.210;2023-02-08T12:20:44;103518.28;;;6.01;45.63
68793;BME280;55778;54.346;10.210;2023-02-08T12:26:30;103506.19;;;6.13;45.61
68793;BME280;55778;54.346;10.210;2023-02-08T12:32:05;103505.09;;;6.18;45.31
68793;BME280;55778;54.346;10.210;2023-02-08T12:51:06;103481.19;;;6.31;46.32
68793;BME280;55778;54.346;10.210;2023-02-08T12:53:45;103479.56;;;6.51;45.68
68793;BME280;55778;54.346;10.210;2023-02-08T12:56:17;103482.81;;;6.61;44.96
68793;BME280;55778;54.346;10.210;2023-02-08T12:58:47;103479.72;;;6.47;43.95
68793;BME280;55778;54.346;10.210;2023-02-08T13:01:21;103474.47;;;6.67;44.22
68793;BME280;55778;54.346;10.210;2023-02-08T13:04:22;103464.50;;;6.92;44.12
68793;BME280;55778;54.346;10.210;2023-02-08T13:06:51;103467.63;;;6.57;43.83
68793;BME280;55778;54.346;10.210;2023-02-08T13:12:19;103457.16;;;6.22;45.31
68793;BME280;55778;54.346;10.210;2023-02-08T13:14:57;103453.06;;;6.35;44.70
68793;BME280;55778;54.346;10.210;2023-02-08T13:17:35;103451.38;;;6.31;42.97
68793;BME280;55778;54.346;10.210;2023-02-08T13:22:51;103436.25;;;6.25;42.36
68793;BME280;55778;54.346;10.210;2023-02-08T13:25:30;103426.25;;;6.52;43.83
68793;BME280;55778;54.346;10.210;2023-02-08T13:28:01;103416.47;;;6.72;42.88
68793;BME280;55778;54.346;10.210;2023-02-08T13:30:28;103408.09;;;6.55;42.73
68793;BME280;55778;54.346;10.210;2023-02-08T13:32:54;103414.28;;;6.59;41.55
68793;BME280;55778;54.346;10.210;2023-02-08T13:35:28;103412.66;;;6.53;42.25
68793;BME280;55778;54.346;10.210;2023-02-08T13:38:00;103407.13;;;6.56;43.29
68793;BME280;55778;54.346;10.210;2023-02-08T13:40:29;103401.84;;;6.29;43.53
68793;BME280;55778;54.346;10.210;2023-02-08T13:43:27;103401.94;;;6.26;43.50
68793;BME280;55778;54.346;10.210;2023-02-08T13:45:58;103400.72;;;6.09;44.12
68793;BME280;55778;54.346;10.210;2023-02-08T13:48:24;103406.25;;;6.06;44.44
68793;BME280;55778;54.346;10.210;2023-02-08T13:50:55;103392.19;;;5.95;45.07
68793;BME280;55778;54.346;10.210;2023-02-08T13:56:01;103392.59;;;6.09;42.61
68793;BME280;55778;54.346;10.210;2023-02-08T14:01:26;103388.84;;;6.13;43.75
68793;BME280;55778;54.346;10.210;2023-02-08T14:06:47;103375.13;;;5.66;44.48
68793;BME280;55778;54.346;10.210;2023-02-08T14:12:13;103370.91;;;5.30;44.35
68793;BME280;55778;54.346;10.210;2023-02-08T14:14:40;103365.25;;;5.37;44.34
68793;BME280;55778;54.346;10.210;2023-02-08T14:17:13;103363.19;;;5.45;43.81
68793;BME280;55778;54.346;10.210;2023-02-08T14:19:43;103363.69;;;5.30;43.15
68793;BME280;55778;54.346;10.210;2023-02-08T14:24:39;103355.38;;;5.36;43.29
68793;BME280;55778;54.346;10.210;2023-02-08T14:29:57;103346.72;;;5.25;42.99
68793;BME280;55778;54.346;10.210;2023-02-08T14:32:25;103349.19;;;5.05;42.39
68793;BME280;55778;54.346;10.210;2023-02-08T14:35:04;103342.00;;;5.32;44.16
68793;BME280;55778;54.346;10.210;2023-02-08T14:37:33;103333.66;;;5.39;43.22
68793;BME280;55778;54.346;10.210;2023-02-08T14:43:00;103342.84;;;5.34;43.16
68793;BME280;55778;54.346;10.210;2023-02-08T14:45:33;103344.09;;;5.22;41.82
68793;BME280;55778;54.346;10.210;2023-02-08T14:50:35;103330.97;;;4.83;42.91
68793;BME280;55778;54.346;10.210;2023-02-08T14:53:17;103334.50;;;4.85;43.57
68793;BME280;55778;54.346;10.210;2023-02-08T14:55:50;103316.66;;;4.79;43.77
68793;BME280;55778;54.346;10.210;2023-02-08T14:58:28;103323.47;;;4.63;44.83
68793;BME280;55778;54.346;10.210;2023-02-08T15:00:59;103320.03;;;4.58;44.56
68793;BME280;55778;54.346;10.210;2023-02-08T15:03:26;103314.91;;;4.49;45.31